Gravesend, United Kingdom
Current Conditions -  °F | °C
As of 1:50 PM on Thursday 23 Oct 2014 (Local Time) from EGLC Reporting Station
Scattered Clouds Scattered Clouds  
Wind Chill: 63°   Ceiling: Unl
Heat Index: 63°   Visibility: 6mi
Dew Point: 52°   Wind: 13mph
Humidity: 68%   Direction: 230°SW
Pressure: 30.09"   Gusts: NA
Location:  51.44°N, 0.37°E
Report Text: EGLC 231250Z 23011KT 9999 FEW025 SCT035 17/11 Q1019
Loading
Personal Weather Stations






























Interactive Weather Map
Tropical Storm Tracking
New forecast layout! Learn more

10-Day Weather Forecast

Advertisements
Track Severe Weather on mobile